Alianca Shanghai — A8CQ5 — position and weather

sailwx.info

Track history (hours):
 
Tides and Currents Weather Stations Pressure Air Temp Water Temp Dewpoint Dewpoint Depression Visibility Wind Speed Wind Dir Waves Ship Positions

Alianca Shanghai

Last reported at 2016-Feb-13 20:33 UTC. Time now 2016-Feb-14 10:11 UTC.
Position N 40°52' E 003°38'.

Length 199.9 m; beam 29.8 m; draft 11.6 m.

Type: Ship. MMSI: 636016014.

Date/timePositionNaut miles runAvg speedWind from/ knotsBaromVisibWave heightAir tempDewpointWater temp
2016-Feb-13 20:33N 40°52' E 003°38'1515.1
2016-Feb-13 19:33N 40°44' E 003°20'1514.9
2016-Feb-13 18:33N 40°37' E 003°03'1514.8
2016-Feb-13 17:33N 40°29' E 002°46'1514.9
2016-Feb-13 16:33N 40°22' E 002°29'1515.1
2016-Feb-13 15:33N 40°14' E 002°12'1515.1
2016-Feb-13 14:33N 40°07' E 001°55'1515.2
2016-Feb-13 13:33N 39°60' E 001°38'1515.3
2016-Feb-13 12:33N 39°52' E 001°20'1514.6
2016-Feb-13 11:32N 39°45' E 001°03'6015.1
2016-Feb-13 07:33N 39°26' W 000°11'6 6.1
2016-Feb-13 06:33N 39°26' W 000°19'0 0.0
2016-Feb-13 05:33N 39°26' W 000°19'0 0.0
2016-Feb-13 04:32N 39°26' W 000°19'0 0.0
2016-Feb-13 03:32N 39°26' W 000°19'0 0.0
2016-Feb-13 02:32N 39°26' W 000°19'0 0.0
2016-Feb-13 01:33N 39°26' W 000°19'0 0.0
2016-Feb-13 00:33N 39°26' W 000°19'0 0.0
2016-Feb-12 23:32N 39°26' W 000°19'0 0.0
2016-Feb-12 22:32N 39°26' W 000°19'0 0.0
2016-Feb-12 21:30N 39°26' W 000°19'0 0.0
2016-Feb-12 20:32N 39°26' W 000°19'0 0.0
2016-Feb-12 19:32N 39°26' W 000°19'0 0.0
2016-Feb-12 18:32N 39°26' W 000°19'0 0.0
2016-Feb-12 17:30N 39°26' W 000°19'0 0.0
2016-Feb-12 16:33N 39°26' W 000°19'0 0.0
2016-Feb-12 15:32N 39°26' W 000°19'0 0.0
2016-Feb-12 14:33N 39°26' W 000°19'0 0.0
2016-Feb-12 13:33N 39°26' W 000°19'0 0.0
2016-Feb-12 12:33N 39°26' W 000°19'0 0.0
2016-Feb-12 11:33N 39°26' W 000°19'0 0.0
2016-Feb-12 10:32N 39°26' W 000°19'0 0.0
2016-Feb-12 09:32N 39°26' W 000°19'0 0.0
2016-Feb-12 08:33N 39°26' W 000°19'0 0.0
2016-Feb-12 07:33N 39°26' W 000°19'0 0.0
2016-Feb-12 06:32N 39°26' W 000°19'0 0.0
2016-Feb-12 05:32N 39°26' W 000°19'0 0.0
2016-Feb-12 04:32N 39°26' W 000°19'0 0.0
2016-Feb-12 03:32N 39°26' W 000°19'0 0.0
2016-Feb-12 02:33N 39°26' W 000°19'0 0.0
2016-Feb-12 01:33N 39°26' W 000°19'0 0.0
2016-Feb-12 00:32N 39°26' W 000°19'0 0.0
2016-Feb-11 23:32N 39°26' W 000°19'2 2.3
2016-Feb-11 22:33N 39°25' W 000°16'1 1.2
2016-Feb-11 21:33N 39°24' W 000°16'0 0.0
2016-Feb-11 20:33N 39°24' W 000°16'0 0.1
2016-Feb-11 19:33N 39°24' W 000°16'0 0.1
2016-Feb-11 18:20N 39°24' W 000°16'0 0.1
2016-Feb-11 17:30N 39°24' W 000°16'0 0.1
2016-Feb-11 16:33N 39°24' W 000°16'0 0.0
2016-Feb-11 15:33N 39°24' W 000°16'1 1.4
2016-Feb-11 14:33N 39°23' W 000°14'8110.0
2016-Feb-11 06:28N 38°02' W 000°06'1914.8
2016-Feb-11 05:11N 37°46' W 000°20'915.0
2016-Feb-11 04:33N 37°39' W 000°26'1514.8
2016-Feb-11 03:33N 37°28' W 000°39'1714.7
2016-Feb-11 02:23N 37°15' W 000°54'1314.8
2016-Feb-11 01:31N 37°07' W 001°06'20614.8
2016-Feb-10 11:33N 36°01' W 005°09'  
2016-Feb-06 09:34N 35°56' W 005°50'1514.1
2016-Feb-06 08:32N 35°58' W 005°32'1111.3
2016-Feb-06 07:33N 36°02' W 005°19'21513.3
2016-Feb-05 15:24N 37°12' W 001°06'1213.6
2016-Feb-05 14:33N 37°20' W 000°56'1414.1
2016-Feb-05 13:33N 37°29' W 000°42'1313.4
2016-Feb-05 12:34N 37°38' W 000°31'1313.4
2016-Feb-05 11:33N 37°50' W 000°22'1513.4
2016-Feb-05 10:26N 38°02' W 000°11'8011.1
2016-Feb-05 03:15N 39°22' W 000°13'6 9.3
2016-Feb-05 02:33N 39°26' W 000°19'1 0.6
2016-Feb-05 01:31N 39°26' W 000°20'0 0.0
2016-Feb-05 00:31N 39°26' W 000°20'0 0.0
2016-Feb-04 23:31N 39°26' W 000°20'0 0.0
2016-Feb-04 22:10N 39°26' W 000°20'0 0.0
2016-Feb-04 21:25N 39°26' W 000°20'0 0.0
2016-Feb-04 20:28N 39°26' W 000°20'0 0.0
2016-Feb-04 19:22N 39°26' W 000°20'0 0.0
2016-Feb-04 18:31N 39°26' W 000°20'0 0.0
2016-Feb-04 17:31N 39°26' W 000°20'0 0.0
2016-Feb-04 16:31N 39°26' W 000°20'0 0.0
2016-Feb-04 15:28N 39°26' W 000°20'0 0.0
2016-Feb-04 14:31N 39°26' W 000°20'0 0.0
2016-Feb-04 13:31N 39°26' W 000°20'0 0.0
2016-Feb-04 10:25N 39°26' W 000°20'0 0.0
2016-Feb-04 09:13N 39°26' W 000°20'0 0.0
2016-Feb-04 07:28N 39°26' W 000°20'0 0.0
2016-Feb-04 05:25N 39°26' W 000°20'0 0.0
2016-Feb-04 04:28N 39°26' W 000°20'0 0.0
2016-Feb-04 03:31N 39°26' W 000°20'0 0.0
2016-Feb-04 02:25N 39°26' W 000°20'0 0.0
2016-Feb-04 01:31N 39°26' W 000°20'0 0.0
2016-Feb-04 00:31N 39°26' W 000°20'0 0.0
2016-Feb-03 23:28N 39°26' W 000°20'0 0.0
2016-Feb-03 22:28N 39°26' W 000°20'0 0.5
2016-Feb-03 21:28N 39°26' W 000°19'  
Track history (hours):
 
Tides and Currents Weather Stations Pressure Air Temp Water Temp Dewpoint Dewpoint Depression Visibility Wind Speed Wind Dir Waves Ship Positions

Alianca Shanghai

Last reported at 2016-Feb-13 20:33 UTC. Time now 2016-Feb-14 10:11 UTC.
Position N 40°52' E 003°38'.

Length 199.9 m; beam 29.8 m; draft 11.6 m.

Type: Ship. MMSI: 636016014.

Date/timePositionNaut miles runAvg speedWind from/ knotsBaromVisibWave heightAir tempDewpointWater temp
2016-Feb-13 20:33N 40°52' E 003°38'1515.1
2016-Feb-13 19:33N 40°44' E 003°20'1514.9
2016-Feb-13 18:33N 40°37' E 003°03'1514.8
2016-Feb-13 17:33N 40°29' E 002°46'1514.9
2016-Feb-13 16:33N 40°22' E 002°29'1515.1
2016-Feb-13 15:33N 40°14' E 002°12'1515.1
2016-Feb-13 14:33N 40°07' E 001°55'1515.2
2016-Feb-13 13:33N 39°60' E 001°38'1515.3
2016-Feb-13 12:33N 39°52' E 001°20'1514.6
2016-Feb-13 11:32N 39°45' E 001°03'6015.1
2016-Feb-13 07:33N 39°26' W 000°11'6 6.1
2016-Feb-13 06:33N 39°26' W 000°19'0 0.0
2016-Feb-13 05:33N 39°26' W 000°19'0 0.0
2016-Feb-13 04:32N 39°26' W 000°19'0 0.0
2016-Feb-13 03:32N 39°26' W 000°19'0 0.0
2016-Feb-13 02:32N 39°26' W 000°19'0 0.0
2016-Feb-13 01:33N 39°26' W 000°19'0 0.0
2016-Feb-13 00:33N 39°26' W 000°19'0 0.0
2016-Feb-12 23:32N 39°26' W 000°19'0 0.0
2016-Feb-12 22:32N 39°26' W 000°19'0 0.0
2016-Feb-12 21:30N 39°26' W 000°19'0 0.0
2016-Feb-12 20:32N 39°26' W 000°19'0 0.0
2016-Feb-12 19:32N 39°26' W 000°19'0 0.0
2016-Feb-12 18:32N 39°26' W 000°19'0 0.0
2016-Feb-12 17:30N 39°26' W 000°19'0 0.0
2016-Feb-12 16:33N 39°26' W 000°19'0 0.0
2016-Feb-12 15:32N 39°26' W 000°19'0 0.0
2016-Feb-12 14:33N 39°26' W 000°19'0 0.0
2016-Feb-12 13:33N 39°26' W 000°19'0 0.0
2016-Feb-12 12:33N 39°26' W 000°19'0 0.0
2016-Feb-12 11:33N 39°26' W 000°19'0 0.0
2016-Feb-12 10:32N 39°26' W 000°19'0 0.0
2016-Feb-12 09:32N 39°26' W 000°19'0 0.0
2016-Feb-12 08:33N 39°26' W 000°19'0 0.0
2016-Feb-12 07:33N 39°26' W 000°19'0 0.0
2016-Feb-12 06:32N 39°26' W 000°19'0 0.0
2016-Feb-12 05:32N 39°26' W 000°19'0 0.0
2016-Feb-12 04:32N 39°26' W 000°19'0 0.0
2016-Feb-12 03:32N 39°26' W 000°19'0 0.0
2016-Feb-12 02:33N 39°26' W 000°19'0 0.0
2016-Feb-12 01:33N 39°26' W 000°19'0 0.0
2016-Feb-12 00:32N 39°26' W 000°19'0 0.0
2016-Feb-11 23:32N 39°26' W 000°19'2 2.3
2016-Feb-11 22:33N 39°25' W 000°16'1 1.2
2016-Feb-11 21:33N 39°24' W 000°16'0 0.0
2016-Feb-11 20:33N 39°24' W 000°16'0 0.1
2016-Feb-11 19:33N 39°24' W 000°16'0 0.1
2016-Feb-11 18:20N 39°24' W 000°16'0 0.1
2016-Feb-11 17:30N 39°24' W 000°16'0 0.1
2016-Feb-11 16:33N 39°24' W 000°16'0 0.0
2016-Feb-11 15:33N 39°24' W 000°16'1 1.4
2016-Feb-11 14:33N 39°23' W 000°14'8110.0
2016-Feb-11 06:28N 38°02' W 000°06'1914.8
2016-Feb-11 05:11N 37°46' W 000°20'915.0
2016-Feb-11 04:33N 37°39' W 000°26'1514.8
2016-Feb-11 03:33N 37°28' W 000°39'1714.7
2016-Feb-11 02:23N 37°15' W 000°54'1314.8
2016-Feb-11 01:31N 37°07' W 001°06'20614.8
2016-Feb-10 11:33N 36°01' W 005°09'  
2016-Feb-06 09:34N 35°56' W 005°50'1514.1
2016-Feb-06 08:32N 35°58' W 005°32'1111.3
2016-Feb-06 07:33N 36°02' W 005°19'21513.3
2016-Feb-05 15:24N 37°12' W 001°06'1213.6
2016-Feb-05 14:33N 37°20' W 000°56'1414.1
2016-Feb-05 13:33N 37°29' W 000°42'1313.4
2016-Feb-05 12:34N 37°38' W 000°31'1313.4
2016-Feb-05 11:33N 37°50' W 000°22'1513.4
2016-Feb-05 10:26N 38°02' W 000°11'8011.1
2016-Feb-05 03:15N 39°22' W 000°13'6 9.3
2016-Feb-05 02:33N 39°26' W 000°19'1 0.6
2016-Feb-05 01:31N 39°26' W 000°20'0 0.0
2016-Feb-05 00:31N 39°26' W 000°20'0 0.0
2016-Feb-04 23:31N 39°26' W 000°20'0 0.0
2016-Feb-04 22:10N 39°26' W 000°20'0 0.0
2016-Feb-04 21:25N 39°26' W 000°20'0 0.0
2016-Feb-04 20:28N 39°26' W 000°20'0 0.0
2016-Feb-04 19:22N 39°26' W 000°20'0 0.0
2016-Feb-04 18:31N 39°26' W 000°20'0 0.0
2016-Feb-04 17:31N 39°26' W 000°20'0 0.0
2016-Feb-04 16:31N 39°26' W 000°20'0 0.0
2016-Feb-04 15:28N 39°26' W 000°20'0 0.0
2016-Feb-04 14:31N 39°26' W 000°20'0 0.0
2016-Feb-04 13:31N 39°26' W 000°20'0 0.0
2016-Feb-04 10:25N 39°26' W 000°20'0 0.0
2016-Feb-04 09:13N 39°26' W 000°20'0 0.0
2016-Feb-04 07:28N 39°26' W 000°20'0 0.0
2016-Feb-04 05:25N 39°26' W 000°20'0 0.0
2016-Feb-04 04:28N 39°26' W 000°20'0 0.0
2016-Feb-04 03:31N 39°26' W 000°20'0 0.0
2016-Feb-04 02:25N 39°26' W 000°20'0 0.0
2016-Feb-04 01:31N 39°26' W 000°20'0 0.0
2016-Feb-04 00:31N 39°26' W 000°20'0 0.0
2016-Feb-03 23:28N 39°26' W 000°20'0 0.0
2016-Feb-03 22:28N 39°26' W 000°20'0 0.5
2016-Feb-03 21:28N 39°26' W 000°19'  

Dump ship's entire track history